Startpagina
METAR-TAF:

METAR-TAF

Vliegvelden :

Luchthaven Oslo Gardermoen

Oslo, Noorwegen

breedte: 60-12N, lengte: 011-05E, hoogte: 208 m

Actueel weer

Dit bericht is 32 minuten geleden gemaakt, om 00:20 UTC
Wind 2 kt uit variabele richting
Temperatuur -1°C
Vochtigheid 69%
Druk 1028 hPa
Zicht 10 km of meer
geen wolken onder 1500 m en geen cumulonimbus

METAR: ENGM 220020Z VRB02KT CAVOK M01/M06 Q1028

Tijdstip: 01:52 (00:52 UTC)

Verwachting

Verwachting geldig van 22 om 00 UTC tot 22 om 24 UTC
Wind 5 kt uit variabele richting
Zicht 10 km of meer
geen wolken onder 1500 m en geen cumulonimbus
Wijzigt naar
van 22 om 07 UTC tot 22 om 09 UTC
Wind 10 kt uit het zuiden
Wijzigt naar
van 22 om 16 UTC tot 22 om 18 UTC
Wind 15 kt uit het zuiden met uitschieters tot 25 kt
Gebroken wolken op 1200 ft

TAF: ENGM 2200/2224 VRB05KT CAVOK BECMG 2207/2209 18010KT BECMG 2216/2218 19015G25KT BKN012

Waarnemingen en weersverwachtingen van meer dan 4000 vliegvelden (METAR en TAF).

De beschikbare stations zijn de gele en rode punten op de kaart.

Ga met uw muis naar het station om de naam te zien.

Klik dan om waarnemingen en weersverwachtingen te zien.

kaart wijzigen: klik op de groene knoppen met een zwart kruis om in te zoomen, op de groene knop met een streepje om uit te zoomen of op de groene pijlen voor aangrenzende kaarten.


METAR-TAF: